sensor_id;sensor_type;location;lat;lon;timestamp;temperature;humidity
32394;DHT22;18853;45.426;9.206;2023-01-26T00:00:08;12.50;54.40
32394;DHT22;18853;45.426;9.206;2023-01-26T00:02:35;12.50;54.30
32394;DHT22;18853;45.426;9.206;2023-01-26T00:05:00;12.40;54.20
32394;DHT22;18853;45.426;9.206;2023-01-26T00:07:27;12.40;54.20
32394;DHT22;18853;45.426;9.206;2023-01-26T00:09:53;12.40;54.40
32394;DHT22;18853;45.426;9.206;2023-01-26T00:12:19;12.30;54.30
32394;DHT22;18853;45.426;9.206;2023-01-26T00:14:44;12.30;54.30
32394;DHT22;18853;45.426;9.206;2023-01-26T00:17:17;12.30;54.30
32394;DHT22;18853;45.426;9.206;2023-01-26T00:19:54;12.30;54.30
32394;DHT22;18853;45.426;9.206;2023-01-26T00:22:20;12.30;54.30
32394;DHT22;18853;45.426;9.206;2023-01-26T00:24:46;12.30;54.20
32394;DHT22;18853;45.426;9.206;2023-01-26T00:27:12;12.30;54.30
32394;DHT22;18853;45.426;9.206;2023-01-26T00:29:38;12.30;54.30
32394;DHT22;18853;45.426;9.206;2023-01-26T00:32:03;12.30;54.30
32394;DHT22;18853;45.426;9.206;2023-01-26T00:34:29;12.30;54.30
32394;DHT22;18853;45.426;9.206;2023-01-26T00:36:55;12.20;54.30
32394;DHT22;18853;45.426;9.206;2023-01-26T00:39:21;12.20;54.50
32394;DHT22;18853;45.426;9.206;2023-01-26T00:41:46;12.20;54.70
32394;DHT22;18853;45.426;9.206;2023-01-26T00:44:31;12.20;54.90
32394;DHT22;18853;45.426;9.206;2023-01-26T00:46:57;12.10;55.00
32394;DHT22;18853;45.426;9.206;2023-01-26T00:49:22;12.10;55.00
32394;DHT22;18853;45.426;9.206;2023-01-26T00:51:48;12.10;54.90
32394;DHT22;18853;45.426;9.206;2023-01-26T00:54:14;12.10;54.80
32394;DHT22;18853;45.426;9.206;2023-01-26T00:56:40;12.00;54.80
32394;DHT22;18853;45.426;9.206;2023-01-26T00:59:05;12.00;54.80
32394;DHT22;18853;45.426;9.206;2023-01-26T01:01:32;12.00;54.80
32394;DHT22;18853;45.426;9.206;2023-01-26T01:03:57;11.90;54.90
32394;DHT22;18853;45.426;9.206;2023-01-26T01:06:23;11.90;54.90
32394;DHT22;18853;45.426;9.206;2023-01-26T01:08:49;11.90;55.00
32394;DHT22;18853;45.426;9.206;2023-01-26T01:11:14;11.80;55.00
32394;DHT22;18853;45.426;9.206;2023-01-26T01:13:40;11.80;55.00
32394;DHT22;18853;45.426;9.206;2023-01-26T01:16:07;11.80;55.10
32394;DHT22;18853;45.426;9.206;2023-01-26T01:18:34;11.80;55.20
32394;DHT22;18853;45.426;9.206;2023-01-26T01:21:03;11.70;55.20
32394;DHT22;18853;45.426;9.206;2023-01-26T01:23:29;11.70;55.30
32394;DHT22;18853;45.426;9.206;2023-01-26T01:25:59;11.80;55.40
32394;DHT22;18853;45.426;9.206;2023-01-26T01:28:25;11.80;55.50
32394;DHT22;18853;45.426;9.206;2023-01-26T01:30:51;11.80;55.60
32394;DHT22;18853;45.426;9.206;2023-01-26T01:33:16;11.80;55.50
32394;DHT22;18853;45.426;9.206;2023-01-26T01:35:42;11.80;55.60
32394;DHT22;18853;45.426;9.206;2023-01-26T01:38:08;11.80;55.60
32394;DHT22;18853;45.426;9.206;2023-01-26T01:40:34;11.80;55.70
32394;DHT22;18853;45.426;9.206;2023-01-26T01:42:59;11.80;55.60
32394;DHT22;18853;45.426;9.206;2023-01-26T01:47:56;11.80;55.60
32394;DHT22;18853;45.426;9.206;2023-01-26T01:50:24;11.80;55.70
32394;DHT22;18853;45.426;9.206;2023-01-26T01:52:51;11.80;55.80
32394;DHT22;18853;45.426;9.206;2023-01-26T01:55:18;11.80;55.80
32394;DHT22;18853;45.426;9.206;2023-01-26T01:57:49;11.80;55.80
32394;DHT22;18853;45.426;9.206;2023-01-26T02:00:19;11.90;55.90
32394;DHT22;18853;45.426;9.206;2023-01-26T02:02:57;11.90;55.80
32394;DHT22;18853;45.426;9.206;2023-01-26T02:08:15;11.90;56.10
32394;DHT22;18853;45.426;9.206;2023-01-26T02:10:46;11.90;56.00
32394;DHT22;18853;45.426;9.206;2023-01-26T02:13:14;11.90;55.90
32394;DHT22;18853;45.426;9.206;2023-01-26T02:15:40;11.90;55.90
32394;DHT22;18853;45.426;9.206;2023-01-26T02:18:06;11.90;55.80
32394;DHT22;18853;45.426;9.206;2023-01-26T02:20:44;11.90;55.80
32394;DHT22;18853;45.426;9.206;2023-01-26T02:23:53;12.00;55.80
32394;DHT22;18853;45.426;9.206;2023-01-26T02:26:22;12.00;55.70
32394;DHT22;18853;45.426;9.206;2023-01-26T02:28:48;11.90;55.70
32394;DHT22;18853;45.426;9.206;2023-01-26T02:31:15;12.00;55.70
32394;DHT22;18853;45.426;9.206;2023-01-26T02:33:42;12.00;55.70
32394;DHT22;18853;45.426;9.206;2023-01-26T02:36:16;12.00;55.60
32394;DHT22;18853;45.426;9.206;2023-01-26T02:38:43;12.00;55.60
32394;DHT22;18853;45.426;9.206;2023-01-26T02:41:13;12.00;55.60
32394;DHT22;18853;45.426;9.206;2023-01-26T02:44:06;12.00;55.60
32394;DHT22;18853;45.426;9.206;2023-01-26T02:46:33;11.90;55.80
32394;DHT22;18853;45.426;9.206;2023-01-26T02:48:58;11.80;55.60
32394;DHT22;18853;45.426;9.206;2023-01-26T02:51:43;11.80;55.70
32394;DHT22;18853;45.426;9.206;2023-01-26T02:54:08;11.80;55.80
32394;DHT22;18853;45.426;9.206;2023-01-26T02:56:54;11.80;55.90
32394;DHT22;18853;45.426;9.206;2023-01-26T02:59:20;11.70;56.00
32394;DHT22;18853;45.426;9.206;2023-01-26T03:01:49;11.70;56.00
32394;DHT22;18853;45.426;9.206;2023-01-26T03:04:15;11.80;56.10
32394;DHT22;18853;45.426;9.206;2023-01-26T03:06:40;11.80;56.00
32394;DHT22;18853;45.426;9.206;2023-01-26T03:09:06;11.70;55.70
32394;DHT22;18853;45.426;9.206;2023-01-26T03:11:32;11.80;55.60
32394;DHT22;18853;45.426;9.206;2023-01-26T03:14:07;11.70;55.90
32394;DHT22;18853;45.426;9.206;2023-01-26T03:16:33;11.70;56.10
32394;DHT22;18853;45.426;9.206;2023-01-26T03:18:59;11.70;56.00
32394;DHT22;18853;45.426;9.206;2023-01-26T03:21:33;11.70;56.00
32394;DHT22;18853;45.426;9.206;2023-01-26T03:24:18;11.70;55.80
32394;DHT22;18853;45.426;9.206;2023-01-26T03:27:02;11.70;56.00
32394;DHT22;18853;45.426;9.206;2023-01-26T03:29:46;11.70;56.20
32394;DHT22;18853;45.426;9.206;2023-01-26T03:32:12;11.70;56.10
32394;DHT22;18853;45.426;9.206;2023-01-26T03:34:38;11.70;56.20
32394;DHT22;18853;45.426;9.206;2023-01-26T03:37:04;11.70;56.10
32394;DHT22;18853;45.426;9.206;2023-01-26T03:39:30;11.70;56.20
32394;DHT22;18853;45.426;9.206;2023-01-26T03:42:14;11.60;56.40
32394;DHT22;18853;45.426;9.206;2023-01-26T03:44:58;11.60;56.70
32394;DHT22;18853;45.426;9.206;2023-01-26T03:47:42;11.60;56.70
32394;DHT22;18853;45.426;9.206;2023-01-26T03:50:27;11.60;56.70
32394;DHT22;18853;45.426;9.206;2023-01-26T03:53:19;11.60;56.60
32394;DHT22;18853;45.426;9.206;2023-01-26T03:56:05;11.70;56.40
32394;DHT22;18853;45.426;9.206;2023-01-26T03:58:48;11.70;56.40
32394;DHT22;18853;45.426;9.206;2023-01-26T04:01:15;11.70;56.10
32394;DHT22;18853;45.426;9.206;2023-01-26T04:03:48;11.70;56.10
32394;DHT22;18853;45.426;9.206;2023-01-26T04:06:33;11.60;56.10
32394;DHT22;18853;45.426;9.206;2023-01-26T04:09:17;11.60;56.00
32394;DHT22;18853;45.426;9.206;2023-01-26T04:11:43;11.60;56.20
32394;DHT22;18853;45.426;9.206;2023-01-26T04:14:13;11.50;56.40
32394;DHT22;18853;45.426;9.206;2023-01-26T04:16:59;11.50;56.60
32394;DHT22;18853;45.426;9.206;2023-01-26T04:19:44;11.60;56.60
32394;DHT22;18853;45.426;9.206;2023-01-26T04:22:29;11.50;56.50
32394;DHT22;18853;45.426;9.206;2023-01-26T04:24:55;11.60;56.40
32394;DHT22;18853;45.426;9.206;2023-01-26T04:27:21;11.70;56.30
32394;DHT22;18853;45.426;9.206;2023-01-26T04:29:47;11.70;56.30
32394;DHT22;18853;45.426;9.206;2023-01-26T04:32:13;11.60;56.30
32394;DHT22;18853;45.426;9.206;2023-01-26T04:34:39;11.70;56.30
32394;DHT22;18853;45.426;9.206;2023-01-26T04:37:04;11.70;56.20
32394;DHT22;18853;45.426;9.206;2023-01-26T04:39:30;11.70;56.10
32394;DHT22;18853;45.426;9.206;2023-01-26T04:41:56;11.70;55.90
32394;DHT22;18853;45.426;9.206;2023-01-26T04:44:21;11.70;55.90
32394;DHT22;18853;45.426;9.206;2023-01-26T04:46:47;11.70;55.90
32394;DHT22;18853;45.426;9.206;2023-01-26T04:49:13;11.70;55.90
32394;DHT22;18853;45.426;9.206;2023-01-26T04:51:39;11.70;55.90
32394;DHT22;18853;45.426;9.206;2023-01-26T04:54:05;11.80;55.90
32394;DHT22;18853;45.426;9.206;2023-01-26T04:56:33;11.70;55.90
32394;DHT22;18853;45.426;9.206;2023-01-26T04:59:02;11.70;55.80
32394;DHT22;18853;45.426;9.206;2023-01-26T05:01:29;11.80;55.90
32394;DHT22;18853;45.426;9.206;2023-01-26T05:03:54;11.80;55.70
32394;DHT22;18853;45.426;9.206;2023-01-26T05:06:20;11.80;55.70
32394;DHT22;18853;45.426;9.206;2023-01-26T05:08:46;11.80;55.80
32394;DHT22;18853;45.426;9.206;2023-01-26T05:11:12;11.80;55.80
32394;DHT22;18853;45.426;9.206;2023-01-26T05:13:37;11.80;56.40
32394;DHT22;18853;45.426;9.206;2023-01-26T05:16:04;11.80;55.60
32394;DHT22;18853;45.426;9.206;2023-01-26T05:18:30;11.70;55.60
32394;DHT22;18853;45.426;9.206;2023-01-26T05:20:56;11.70;55.70
32394;DHT22;18853;45.426;9.206;2023-01-26T05:23:22;11.70;55.70
32394;DHT22;18853;45.426;9.206;2023-01-26T05:25:48;11.70;55.70
32394;DHT22;18853;45.426;9.206;2023-01-26T05:28:13;11.70;55.70
32394;DHT22;18853;45.426;9.206;2023-01-26T05:30:39;11.80;55.80
32394;DHT22;18853;45.426;9.206;2023-01-26T05:33:07;11.80;55.80
32394;DHT22;18853;45.426;9.206;2023-01-26T05:35:33;11.70;55.80
32394;DHT22;18853;45.426;9.206;2023-01-26T05:37:59;11.70;55.70
32394;DHT22;18853;45.426;9.206;2023-01-26T05:40:25;11.70;55.70
32394;DHT22;18853;45.426;9.206;2023-01-26T05:42:51;11.70;55.70
32394;DHT22;18853;45.426;9.206;2023-01-26T05:45:17;11.80;55.70
32394;DHT22;18853;45.426;9.206;2023-01-26T05:47:46;11.80;55.60
32394;DHT22;18853;45.426;9.206;2023-01-26T05:50:14;11.80;55.60
32394;DHT22;18853;45.426;9.206;2023-01-26T05:52:41;11.80;55.50
32394;DHT22;18853;45.426;9.206;2023-01-26T05:55:07;11.80;55.50
32394;DHT22;18853;45.426;9.206;2023-01-26T05:57:33;11.80;55.50
32394;DHT22;18853;45.426;9.206;2023-01-26T05:59:59;11.80;55.60
32394;DHT22;18853;45.426;9.206;2023-01-26T06:02:25;11.80;55.90
32394;DHT22;18853;45.426;9.206;2023-01-26T06:04:53;11.80;55.40
32394;DHT22;18853;45.426;9.206;2023-01-26T06:07:19;11.80;55.30
32394;DHT22;18853;45.426;9.206;2023-01-26T06:09:45;11.70;55.30
32394;DHT22;18853;45.426;9.206;2023-01-26T06:12:15;11.80;55.10
32394;DHT22;18853;45.426;9.206;2023-01-26T06:14:41;11.80;55.30
32394;DHT22;18853;45.426;9.206;2023-01-26T06:17:07;11.70;55.10
32394;DHT22;18853;45.426;9.206;2023-01-26T06:19:32;11.70;55.00
32394;DHT22;18853;45.426;9.206;2023-01-26T06:21:58;11.70;55.00
32394;DHT22;18853;45.426;9.206;2023-01-26T06:24:24;11.70;55.00
32394;DHT22;18853;45.426;9.206;2023-01-26T06:26:49;11.60;55.00
32394;DHT22;18853;45.426;9.206;2023-01-26T06:29:16;11.60;55.20
32394;DHT22;18853;45.426;9.206;2023-01-26T06:31:41;11.50;55.10
32394;DHT22;18853;45.426;9.206;2023-01-26T06:34:07;11.50;55.10
32394;DHT22;18853;45.426;9.206;2023-01-26T06:36:33;11.50;55.10
32394;DHT22;18853;45.426;9.206;2023-01-26T06:38:59;11.50;55.10
32394;DHT22;18853;45.426;9.206;2023-01-26T06:41:25;11.40;55.00
32394;DHT22;18853;45.426;9.206;2023-01-26T06:43:51;11.50;54.80
32394;DHT22;18853;45.426;9.206;2023-01-26T06:46:17;11.50;54.80
32394;DHT22;18853;45.426;9.206;2023-01-26T06:48:44;11.50;54.80
32394;DHT22;18853;45.426;9.206;2023-01-26T06:53:57;11.50;54.70
32394;DHT22;18853;45.426;9.206;2023-01-26T06:56:24;11.50;54.70
32394;DHT22;18853;45.426;9.206;2023-01-26T06:58:50;11.40;54.80
32394;DHT22;18853;45.426;9.206;2023-01-26T07:03:41;11.40;54.70
32394;DHT22;18853;45.426;9.206;2023-01-26T07:06:07;11.40;54.80
32394;DHT22;18853;45.426;9.206;2023-01-26T07:08:35;11.40;54.70
32394;DHT22;18853;45.426;9.206;2023-01-26T07:11:01;11.30;54.60
32394;DHT22;18853;45.426;9.206;2023-01-26T07:13:27;11.40;54.50
32394;DHT22;18853;45.426;9.206;2023-01-26T07:16:10;11.30;54.50
32394;DHT22;18853;45.426;9.206;2023-01-26T07:18:36;11.30;54.50
32394;DHT22;18853;45.426;9.206;2023-01-26T07:21:11;11.30;54.60
32394;DHT22;18853;45.426;9.206;2023-01-26T07:23:37;11.30;54.50
32394;DHT22;18853;45.426;9.206;2023-01-26T07:26:03;11.20;54.50
32394;DHT22;18853;45.426;9.206;2023-01-26T07:28:29;11.20;54.60
32394;DHT22;18853;45.426;9.206;2023-01-26T07:30:58;11.20;54.60
32394;DHT22;18853;45.426;9.206;2023-01-26T07:33:25;11.20;54.70
32394;DHT22;18853;45.426;9.206;2023-01-26T07:35:54;11.20;54.70
32394;DHT22;18853;45.426;9.206;2023-01-26T07:38:20;11.20;54.70
32394;DHT22;18853;45.426;9.206;2023-01-26T07:40:46;11.20;54.70
32394;DHT22;18853;45.426;9.206;2023-01-26T07:43:12;11.20;54.80
32394;DHT22;18853;45.426;9.206;2023-01-26T07:45:43;11.20;54.90
32394;DHT22;18853;45.426;9.206;2023-01-26T07:48:09;11.20;55.00
32394;DHT22;18853;45.426;9.206;2023-01-26T07:50:34;11.10;55.30
32394;DHT22;18853;45.426;9.206;2023-01-26T07:53:00;11.10;55.40
32394;DHT22;18853;45.426;9.206;2023-01-26T07:55:26;11.10;55.60
32394;DHT22;18853;45.426;9.206;2023-01-26T07:57:52;11.20;55.70
32394;DHT22;18853;45.426;9.206;2023-01-26T08:00:18;11.20;55.80
32394;DHT22;18853;45.426;9.206;2023-01-26T08:02:44;11.10;55.80
32394;DHT22;18853;45.426;9.206;2023-01-26T08:05:13;11.20;55.90
32394;DHT22;18853;45.426;9.206;2023-01-26T08:07:39;11.20;55.80
32394;DHT22;18853;45.426;9.206;2023-01-26T08:10:05;11.20;55.80
32394;DHT22;18853;45.426;9.206;2023-01-26T08:12:31;11.20;55.70
32394;DHT22;18853;45.426;9.206;2023-01-26T08:14:58;11.30;55.60
32394;DHT22;18853;45.426;9.206;2023-01-26T08:17:24;11.30;55.50
32394;DHT22;18853;45.426;9.206;2023-01-26T08:19:50;11.30;55.40
32394;DHT22;18853;45.426;9.206;2023-01-26T08:22:15;11.30;55.40
32394;DHT22;18853;45.426;9.206;2023-01-26T08:24:41;11.30;55.40
32394;DHT22;18853;45.426;9.206;2023-01-26T08:27:07;11.20;55.40
32394;DHT22;18853;45.426;9.206;2023-01-26T08:29:32;11.30;55.30
32394;DHT22;18853;45.426;9.206;2023-01-26T08:31:58;11.30;55.30
32394;DHT22;18853;45.426;9.206;2023-01-26T08:34:24;11.20;55.10
32394;DHT22;18853;45.426;9.206;2023-01-26T08:36:51;11.20;55.10
32394;DHT22;18853;45.426;9.206;2023-01-26T08:39:16;11.20;55.00
32394;DHT22;18853;45.426;9.206;2023-01-26T08:41:42;11.20;54.90
32394;DHT22;18853;45.426;9.206;2023-01-26T08:44:09;11.20;54.90
32394;DHT22;18853;45.426;9.206;2023-01-26T08:46:35;11.30;54.80
32394;DHT22;18853;45.426;9.206;2023-01-26T08:49:00;11.30;54.80
32394;DHT22;18853;45.426;9.206;2023-01-26T08:51:26;11.30;54.70
32394;DHT22;18853;45.426;9.206;2023-01-26T08:53:52;11.30;54.60
32394;DHT22;18853;45.426;9.206;2023-01-26T08:56:19;11.30;54.60
32394;DHT22;18853;45.426;9.206;2023-01-26T08:58:45;11.30;54.50
32394;DHT22;18853;45.426;9.206;2023-01-26T09:01:12;11.40;54.70
32394;DHT22;18853;45.426;9.206;2023-01-26T09:03:39;11.50;54.50
32394;DHT22;18853;45.426;9.206;2023-01-26T09:06:06;11.50;54.30
32394;DHT22;18853;45.426;9.206;2023-01-26T09:08:32;11.50;54.20
32394;DHT22;18853;45.426;9.206;2023-01-26T09:10:58;11.50;54.00
32394;DHT22;18853;45.426;9.206;2023-01-26T09:13:24;11.50;54.30
32394;DHT22;18853;45.426;9.206;2023-01-26T09:15:50;11.60;53.50
32394;DHT22;18853;45.426;9.206;2023-01-26T09:18:15;11.70;53.50
32394;DHT22;18853;45.426;9.206;2023-01-26T09:20:42;11.70;53.60
32394;DHT22;18853;45.426;9.206;2023-01-26T09:23:08;11.70;53.30
32394;DHT22;18853;45.426;9.206;2023-01-26T09:25:38;11.70;53.00
32394;DHT22;18853;45.426;9.206;2023-01-26T09:28:04;11.80;52.80
32394;DHT22;18853;45.426;9.206;2023-01-26T09:30:30;11.80;52.60
32394;DHT22;18853;45.426;9.206;2023-01-26T09:33:01;11.80;52.30
32394;DHT22;18853;45.426;9.206;2023-01-26T09:35:28;11.90;52.10
32394;DHT22;18853;45.426;9.206;2023-01-26T09:37:53;11.80;52.10
32394;DHT22;18853;45.426;9.206;2023-01-26T09:40:44;11.80;52.10
32394;DHT22;18853;45.426;9.206;2023-01-26T09:46:42;11.80;51.60
32394;DHT22;18853;45.426;9.206;2023-01-26T09:49:18;11.70;51.40
32394;DHT22;18853;45.426;9.206;2023-01-26T09:52:34;11.70;51.90
32394;DHT22;18853;45.426;9.206;2023-01-26T09:55:07;11.70;51.50
32394;DHT22;18853;45.426;9.206;2023-01-26T09:57:47;11.70;51.80
32394;DHT22;18853;45.426;9.206;2023-01-26T10:00:27;11.70;51.70
32394;DHT22;18853;45.426;9.206;2023-01-26T10:03:17;11.70;51.40
32394;DHT22;18853;45.426;9.206;2023-01-26T10:08:47;11.90;51.00
32394;DHT22;18853;45.426;9.206;2023-01-26T10:13:56;12.00;50.90
32394;DHT22;18853;45.426;9.206;2023-01-26T10:16:23;12.00;51.00
32394;DHT22;18853;45.426;9.206;2023-01-26T10:18:56;12.00;50.80
32394;DHT22;18853;45.426;9.206;2023-01-26T10:21:29;12.00;50.50
32394;DHT22;18853;45.426;9.206;2023-01-26T10:23:58;12.00;50.80
32394;DHT22;18853;45.426;9.206;2023-01-26T10:26:29;12.10;50.80
32394;DHT22;18853;45.426;9.206;2023-01-26T10:28:56;12.00;50.60
32394;DHT22;18853;45.426;9.206;2023-01-26T10:31:28;12.00;50.70
32394;DHT22;18853;45.426;9.206;2023-01-26T10:36:30;12.10;50.00
32394;DHT22;18853;45.426;9.206;2023-01-26T10:39:04;12.10;49.70
32394;DHT22;18853;45.426;9.206;2023-01-26T10:41:30;12.10;49.10
32394;DHT22;18853;45.426;9.206;2023-01-26T10:43:57;11.90;49.60
32394;DHT22;18853;45.426;9.206;2023-01-26T10:46:25;11.80;49.60
32394;DHT22;18853;45.426;9.206;2023-01-26T10:49:00;11.90;49.80
32394;DHT22;18853;45.426;9.206;2023-01-26T10:51:32;11.90;49.90
32394;DHT22;18853;45.426;9.206;2023-01-26T10:54:20;12.00;49.90
32394;DHT22;18853;45.426;9.206;2023-01-26T10:57:25;12.10;49.90
32394;DHT22;18853;45.426;9.206;2023-01-26T10:59:58;12.10;49.40
32394;DHT22;18853;45.426;9.206;2023-01-26T11:02:29;12.00;49.60
32394;DHT22;18853;45.426;9.206;2023-01-26T11:07:43;12.20;49.60
32394;DHT22;18853;45.426;9.206;2023-01-26T11:12:47;12.20;50.10
32394;DHT22;18853;45.426;9.206;2023-01-26T11:15:19;12.20;50.00
32394;DHT22;18853;45.426;9.206;2023-01-26T11:18:03;12.20;49.90
32394;DHT22;18853;45.426;9.206;2023-01-26T11:31:58;12.60;56.40
32394;DHT22;18853;45.426;9.206;2023-01-26T11:48:50;12.50;48.60
32394;DHT22;18853;45.426;9.206;2023-01-26T11:54:18;12.30;49.20
32394;DHT22;18853;45.426;9.206;2023-01-26T12:00:02;12.30;49.20
32394;DHT22;18853;45.426;9.206;2023-01-26T12:02:32;12.30;49.20
32394;DHT22;18853;45.426;9.206;2023-01-26T12:05:20;12.30;49.30
32394;DHT22;18853;45.426;9.206;2023-01-26T12:08:09;12.40;49.20
32394;DHT22;18853;45.426;9.206;2023-01-26T12:10:57;12.50;49.30
32394;DHT22;18853;45.426;9.206;2023-01-26T12:13:51;12.70;49.30
32394;DHT22;18853;45.426;9.206;2023-01-26T12:16:39;12.80;49.20
32394;DHT22;18853;45.426;9.206;2023-01-26T12:22:18;13.10;48.40
32394;DHT22;18853;45.426;9.206;2023-01-26T12:24:51;13.10;48.50
32394;DHT22;18853;45.426;9.206;2023-01-26T12:27:40;13.00;48.00
32394;DHT22;18853;45.426;9.206;2023-01-26T12:32:40;13.20;47.90
32394;DHT22;18853;45.426;9.206;2023-01-26T12:35:10;13.30;47.70
32394;DHT22;18853;45.426;9.206;2023-01-26T12:37:44;13.40;47.50
32394;DHT22;18853;45.426;9.206;2023-01-26T12:45:43;13.50;46.60
32394;DHT22;18853;45.426;9.206;2023-01-26T12:48:41;13.50;47.00
32394;DHT22;18853;45.426;9.206;2023-01-26T12:51:16;13.50;46.60
32394;DHT22;18853;45.426;9.206;2023-01-26T12:54:03;13.50;46.90
32394;DHT22;18853;45.426;9.206;2023-01-26T12:56:38;13.60;46.60
32394;DHT22;18853;45.426;9.206;2023-01-26T13:01:50;13.80;46.50
32394;DHT22;18853;45.426;9.206;2023-01-26T13:04:16;13.90;47.50
32394;DHT22;18853;45.426;9.206;2023-01-26T13:06:42;14.10;46.50
32394;DHT22;18853;45.426;9.206;2023-01-26T13:09:21;14.20;46.10
32394;DHT22;18853;45.426;9.206;2023-01-26T13:11:49;14.30;45.10
32394;DHT22;18853;45.426;9.206;2023-01-26T13:16:54;14.40;44.80
32394;DHT22;18853;45.426;9.206;2023-01-26T13:21:59;14.60;45.20
32394;DHT22;18853;45.426;9.206;2023-01-26T13:26:57;14.50;45.00
32394;DHT22;18853;45.426;9.206;2023-01-26T13:31:50;14.60;44.60
32394;DHT22;18853;45.426;9.206;2023-01-26T13:34:30;14.70;44.40
32394;DHT22;18853;45.426;9.206;2023-01-26T13:37:04;14.80;44.30
32394;DHT22;18853;45.426;9.206;2023-01-26T13:39:38;15.00;44.20
32394;DHT22;18853;45.426;9.206;2023-01-26T13:42:32;15.00;43.60
32394;DHT22;18853;45.426;9.206;2023-01-26T13:45:04;15.10;43.50
32394;DHT22;18853;45.426;9.206;2023-01-26T13:47:36;15.20;43.60
32394;DHT22;18853;45.426;9.206;2023-01-26T13:50:33;15.20;43.60
32394;DHT22;18853;45.426;9.206;2023-01-26T13:53:21;15.20;43.20
32394;DHT22;18853;45.426;9.206;2023-01-26T13:55:51;15.30;43.70
32394;DHT22;18853;45.426;9.206;2023-01-26T13:58:21;15.40;43.50
32394;DHT22;18853;45.426;9.206;2023-01-26T14:01:17;15.60;43.50
32394;DHT22;18853;45.426;9.206;2023-01-26T14:03:43;15.80;42.50
32394;DHT22;18853;45.426;9.206;2023-01-26T14:06:09;15.80;42.70
32394;DHT22;18853;45.426;9.206;2023-01-26T14:08:36;15.80;42.20
32394;DHT22;18853;45.426;9.206;2023-01-26T14:11:13;15.80;41.70
32394;DHT22;18853;45.426;9.206;2023-01-26T14:13:40;15.70;41.80
32394;DHT22;18853;45.426;9.206;2023-01-26T14:16:17;15.60;41.90
32394;DHT22;18853;45.426;9.206;2023-01-26T14:18:47;15.50;42.00
32394;DHT22;18853;45.426;9.206;2023-01-26T14:21:20;15.50;42.00
32394;DHT22;18853;45.426;9.206;2023-01-26T14:23:54;15.60;41.90
32394;DHT22;18853;45.426;9.206;2023-01-26T14:26:32;15.80;41.90
32394;DHT22;18853;45.426;9.206;2023-01-26T14:28:59;15.90;41.90
32394;DHT22;18853;45.426;9.206;2023-01-26T14:31:27;15.90;41.30
32394;DHT22;18853;45.426;9.206;2023-01-26T14:33:55;15.80;41.30
32394;DHT22;18853;45.426;9.206;2023-01-26T14:36:24;15.80;41.50
32394;DHT22;18853;45.426;9.206;2023-01-26T14:38:53;15.60;41.80
32394;DHT22;18853;45.426;9.206;2023-01-26T14:41:23;15.50;42.20
32394;DHT22;18853;45.426;9.206;2023-01-26T14:43:54;15.30;42.50
32394;DHT22;18853;45.426;9.206;2023-01-26T14:49:17;15.10;42.90
32394;DHT22;18853;45.426;9.206;2023-01-26T14:51:44;14.90;43.30
32394;DHT22;18853;45.426;9.206;2023-01-26T14:54:28;14.80;43.30
32394;DHT22;18853;45.426;9.206;2023-01-26T14:56:55;14.70;43.50
32394;DHT22;18853;45.426;9.206;2023-01-26T14:59:32;14.50;43.90
32394;DHT22;18853;45.426;9.206;2023-01-26T15:02:24;14.50;44.10
32394;DHT22;18853;45.426;9.206;2023-01-26T15:05:13;14.40;44.20
32394;DHT22;18853;45.426;9.206;2023-01-26T15:15:27;14.10;44.80
32394;DHT22;18853;45.426;9.206;2023-01-26T15:18:28;14.00;45.60
32394;DHT22;18853;45.426;9.206;2023-01-26T15:21:13;13.90;44.90
32394;DHT22;18853;45.426;9.206;2023-01-26T15:23:48;13.90;45.30
32394;DHT22;18853;45.426;9.206;2023-01-26T15:28:56;13.80;45.20
32394;DHT22;18853;45.426;9.206;2023-01-26T15:31:36;13.70;45.50
32394;DHT22;18853;45.426;9.206;2023-01-26T15:34:03;13.80;45.80
32394;DHT22;18853;45.426;9.206;2023-01-26T15:36:49;13.70;46.00
32394;DHT22;18853;45.426;9.206;2023-01-26T15:39:18;13.70;45.80
32394;DHT22;18853;45.426;9.206;2023-01-26T15:41:57;13.60;46.00
32394;DHT22;18853;45.426;9.206;2023-01-26T15:44:26;13.60;46.00
32394;DHT22;18853;45.426;9.206;2023-01-26T15:46:51;13.60;46.20
32394;DHT22;18853;45.426;9.206;2023-01-26T15:49:19;13.50;46.30
32394;DHT22;18853;45.426;9.206;2023-01-26T15:51:47;13.50;46.40
32394;DHT22;18853;45.426;9.206;2023-01-26T15:54:13;13.50;46.30
32394;DHT22;18853;45.426;9.206;2023-01-26T15:56:39;13.50;46.20
32394;DHT22;18853;45.426;9.206;2023-01-26T15:59:04;13.50;46.20
32394;DHT22;18853;45.426;9.206;2023-01-26T16:01:30;13.40;46.30
32394;DHT22;18853;45.426;9.206;2023-01-26T16:03:56;13.40;46.20
32394;DHT22;18853;45.426;9.206;2023-01-26T16:06:24;13.40;46.30
32394;DHT22;18853;45.426;9.206;2023-01-26T16:08:50;13.40;46.30
32394;DHT22;18853;45.426;9.206;2023-01-26T16:11:17;13.30;46.40
32394;DHT22;18853;45.426;9.206;2023-01-26T16:13:43;13.30;46.40
32394;DHT22;18853;45.426;9.206;2023-01-26T16:16:11;13.30;46.50
32394;DHT22;18853;45.426;9.206;2023-01-26T16:18:36;13.30;46.40
32394;DHT22;18853;45.426;9.206;2023-01-26T16:21:20;13.20;46.40
32394;DHT22;18853;45.426;9.206;2023-01-26T16:23:46;13.20;46.50
32394;DHT22;18853;45.426;9.206;2023-01-26T16:26:16;13.10;46.60
32394;DHT22;18853;45.426;9.206;2023-01-26T16:28:42;13.10;46.60
32394;DHT22;18853;45.426;9.206;2023-01-26T16:31:26;13.10;46.80
32394;DHT22;18853;45.426;9.206;2023-01-26T16:33:52;13.10;46.70
32394;DHT22;18853;45.426;9.206;2023-01-26T16:36:19;13.00;46.90
32394;DHT22;18853;45.426;9.206;2023-01-26T16:38:45;12.90;46.70
32394;DHT22;18853;45.426;9.206;2023-01-26T16:41:26;12.90;46.80
32394;DHT22;18853;45.426;9.206;2023-01-26T16:43:58;12.90;46.70
32394;DHT22;18853;45.426;9.206;2023-01-26T16:46:26;12.80;46.80
32394;DHT22;18853;45.426;9.206;2023-01-26T16:48:52;12.80;46.90
32394;DHT22;18853;45.426;9.206;2023-01-26T16:51:36;12.70;46.90
32394;DHT22;18853;45.426;9.206;2023-01-26T16:54:03;12.80;46.80
32394;DHT22;18853;45.426;9.206;2023-01-26T16:56:29;12.70;46.80
32394;DHT22;18853;45.426;9.206;2023-01-26T16:58:56;12.70;46.70
32394;DHT22;18853;45.426;9.206;2023-01-26T17:01:26;12.70;46.60
32394;DHT22;18853;45.426;9.206;2023-01-26T17:03:53;12.70;46.60
32394;DHT22;18853;45.426;9.206;2023-01-26T17:06:20;12.70;46.60
32394;DHT22;18853;45.426;9.206;2023-01-26T17:08:46;12.70;46.60
32394;DHT22;18853;45.426;9.206;2023-01-26T17:11:20;12.60;46.70
32394;DHT22;18853;45.426;9.206;2023-01-26T17:13:46;12.60;46.60
32394;DHT22;18853;45.426;9.206;2023-01-26T17:16:21;12.50;46.60
32394;DHT22;18853;45.426;9.206;2023-01-26T17:18:49;12.60;46.60
32394;DHT22;18853;45.426;9.206;2023-01-26T17:21:17;12.50;46.70
32394;DHT22;18853;45.426;9.206;2023-01-26T17:23:48;12.50;46.70
32394;DHT22;18853;45.426;9.206;2023-01-26T17:26:15;12.50;46.70